createdAt,value
2023-05-11T00:00:12.949Z,0.00
2023-05-11T00:01:12.940Z,0.00
2023-05-11T00:02:12.936Z,0.00
2023-05-11T00:03:13.033Z,0.00
2023-05-11T00:04:12.948Z,0.00
2023-05-11T00:05:12.896Z,0.00
2023-05-11T00:06:12.866Z,0.00
2023-05-11T00:07:12.882Z,0.00
2023-05-11T00:08:14.300Z,0.00
2023-05-11T00:09:12.869Z,0.00
2023-05-11T00:10:12.861Z,0.00
2023-05-11T00:11:12.824Z,0.00
2023-05-11T00:12:12.806Z,0.00
2023-05-11T00:13:12.791Z,0.00
2023-05-11T00:14:12.782Z,0.00
2023-05-11T00:15:12.778Z,0.00
2023-05-11T00:16:12.802Z,0.00
2023-05-11T00:17:12.752Z,0.00
2023-05-11T00:18:12.725Z,0.00
2023-05-11T00:19:12.774Z,0.00
2023-05-11T00:20:12.719Z,0.00
2023-05-11T00:21:12.724Z,0.00
2023-05-11T00:22:12.695Z,0.00
2023-05-11T00:23:12.679Z,0.00
2023-05-11T00:24:12.680Z,0.00
2023-05-11T00:25:12.686Z,0.00
2023-05-11T00:26:12.655Z,0.00
2023-05-11T00:27:12.644Z,0.00
2023-05-11T00:28:12.657Z,0.00
2023-05-11T00:29:12.610Z,0.00
2023-05-11T00:30:12.606Z,0.00
2023-05-11T00:31:12.626Z,0.00
2023-05-11T00:32:12.609Z,0.00
2023-05-11T00:33:12.605Z,0.00
2023-05-11T00:34:12.563Z,0.00
2023-05-11T00:35:12.558Z,0.00
2023-05-11T00:36:12.534Z,0.00
2023-05-11T00:37:12.539Z,0.00
2023-05-11T00:38:12.530Z,0.00
2023-05-11T00:39:12.553Z,0.00
2023-05-11T00:40:12.497Z,0.00
2023-05-11T00:41:12.494Z,0.00
2023-05-11T00:42:12.496Z,0.00
2023-05-11T00:43:12.470Z,0.00
2023-05-11T00:44:12.456Z,0.00
2023-05-11T00:45:12.436Z,0.00
2023-05-11T00:46:12.424Z,0.00
2023-05-11T00:47:12.514Z,0.00
2023-05-11T00:48:12.416Z,0.00
2023-05-11T00:49:12.395Z,0.00
2023-05-11T00:50:12.385Z,0.00
2023-05-11T00:51:12.378Z,0.00
2023-05-11T00:52:12.381Z,0.00
2023-05-11T00:53:12.352Z,0.00
2023-05-11T00:54:12.355Z,0.00
2023-05-11T00:55:12.344Z,0.00
2023-05-11T00:56:12.341Z,0.00
2023-05-11T00:57:12.305Z,0.00
2023-05-11T00:58:12.316Z,0.00
2023-05-11T00:59:12.289Z,0.00
2023-05-11T01:00:12.299Z,0.00
2023-05-11T01:01:12.345Z,0.00
2023-05-11T01:02:12.279Z,0.00
2023-05-11T01:03:12.286Z,0.00
2023-05-11T01:04:12.225Z,0.00
2023-05-11T01:05:12.234Z,0.00
2023-05-11T01:06:12.245Z,0.00
2023-05-11T01:07:12.224Z,0.00
2023-05-11T01:08:12.210Z,0.00
2023-05-11T01:09:12.188Z,0.00
2023-05-11T01:10:12.184Z,0.00
2023-05-11T01:11:12.178Z,0.00
2023-05-11T01:12:12.167Z,0.00
2023-05-11T01:13:12.154Z,0.00
2023-05-11T01:14:12.128Z,0.00
2023-05-11T01:15:12.123Z,0.00
2023-05-11T01:16:12.177Z,0.00
2023-05-11T01:17:12.102Z,0.00
2023-05-11T01:18:12.131Z,0.00
2023-05-11T01:19:12.101Z,0.00
2023-05-11T01:20:12.069Z,0.00
2023-05-11T01:21:12.059Z,0.00
2023-05-11T01:22:12.066Z,0.00
2023-05-11T01:23:12.043Z,0.00
2023-05-11T01:24:12.032Z,0.00
2023-05-11T01:25:12.024Z,0.00
2023-05-11T01:26:12.018Z,0.00
2023-05-11T01:27:11.982Z,0.00
2023-05-11T01:28:11.980Z,0.00
2023-05-11T01:29:11.983Z,0.00
2023-05-11T01:30:11.947Z,0.00
2023-05-11T01:31:11.940Z,0.00
2023-05-11T01:32:11.975Z,0.00
2023-05-11T01:33:12.008Z,0.00
2023-05-11T01:34:11.922Z,0.00
2023-05-11T01:35:11.923Z,0.00
2023-05-11T01:36:11.933Z,0.00
2023-05-11T01:37:11.905Z,0.00
2023-05-11T01:38:11.928Z,0.00
2023-05-11T01:39:11.909Z,0.00
2023-05-11T01:40:11.869Z,0.00
2023-05-11T01:41:11.840Z,0.00
2023-05-11T01:42:11.875Z,0.00
2023-05-11T01:43:11.876Z,0.00
2023-05-11T01:44:11.875Z,0.00
2023-05-11T01:45:11.877Z,0.00
2023-05-11T01:46:11.834Z,0.00
2023-05-11T01:47:11.769Z,0.00
2023-05-11T01:48:11.771Z,0.00
2023-05-11T01:49:11.788Z,0.00
2023-05-11T01:50:11.751Z,0.00
2023-05-11T01:51:11.737Z,0.00
2023-05-11T01:52:11.717Z,0.00
2023-05-11T01:53:11.712Z,0.00
2023-05-11T01:54:11.675Z,0.00
2023-05-11T01:55:11.694Z,0.00
2023-05-11T01:56:11.675Z,0.00
2023-05-11T01:57:11.654Z,0.00
2023-05-11T01:58:11.636Z,0.00
2023-05-11T01:59:11.632Z,0.00
2023-05-11T02:00:11.637Z,0.00
2023-05-11T02:01:11.676Z,0.00
2023-05-11T02:02:11.616Z,0.00
2023-05-11T02:03:11.732Z,0.00
2023-05-11T02:04:11.590Z,0.00
2023-05-11T02:05:11.571Z,0.00
2023-05-11T02:06:11.568Z,0.00
2023-05-11T02:07:11.546Z,0.00
2023-05-11T02:08:11.542Z,0.00
2023-05-11T02:09:11.523Z,0.00
2023-05-11T02:10:11.510Z,0.00
2023-05-11T02:11:11.510Z,0.00
2023-05-11T02:12:11.498Z,0.00
2023-05-11T02:13:11.496Z,0.00
2023-05-11T02:14:11.483Z,0.00
2023-05-11T02:15:11.460Z,0.00
2023-05-11T02:16:11.473Z,0.00
2023-05-11T02:17:11.441Z,0.00
2023-05-11T02:18:11.419Z,0.00
2023-05-11T02:19:11.443Z,0.00
2023-05-11T02:20:11.394Z,0.00
2023-05-11T02:21:11.394Z,0.00
2023-05-11T02:22:11.410Z,0.00
2023-05-11T02:23:11.379Z,0.00
2023-05-11T02:24:11.362Z,0.00
2023-05-11T02:25:11.373Z,0.00
2023-05-11T02:26:11.333Z,0.00
2023-05-11T02:27:11.329Z,0.00
2023-05-11T02:28:11.320Z,0.00
2023-05-11T02:29:11.322Z,0.00
2023-05-11T02:30:11.297Z,0.00
2023-05-11T02:31:11.322Z,0.00
2023-05-11T02:32:11.297Z,0.00
2023-05-11T02:33:11.268Z,0.00
2023-05-11T02:34:11.268Z,0.00
2023-05-11T02:35:11.247Z,0.00
2023-05-11T02:36:11.224Z,0.00
2023-05-11T02:37:11.253Z,0.00
2023-05-11T02:38:11.207Z,0.00
2023-05-11T02:39:11.214Z,0.00
2023-05-11T02:40:11.181Z,0.00
2023-05-11T02:41:11.186Z,0.00
2023-05-11T02:42:11.160Z,0.00
2023-05-11T02:43:11.170Z,0.00
2023-05-11T02:44:11.152Z,0.00
2023-05-11T02:45:11.155Z,0.00
2023-05-11T02:46:11.141Z,0.00
2023-05-11T02:47:11.117Z,0.00
2023-05-11T02:48:11.110Z,0.00
2023-05-11T02:49:11.107Z,0.00
2023-05-11T02:50:11.100Z,0.00
2023-05-11T02:51:11.074Z,0.00
2023-05-11T02:52:11.058Z,0.00
2023-05-11T02:53:11.050Z,0.00
2023-05-11T02:54:11.032Z,0.00
2023-05-11T02:55:11.047Z,0.00
2023-05-11T02:56:11.016Z,0.00
2023-05-11T02:57:10.999Z,0.00
2023-05-11T02:58:11.016Z,0.00
2023-05-11T02:59:10.999Z,0.00
2023-05-11T03:00:10.990Z,0.00
2023-05-11T03:01:11.065Z,0.00
2023-05-11T03:02:11.091Z,0.00
2023-05-11T03:03:11.048Z,0.00
2023-05-11T03:04:10.961Z,0.00
2023-05-11T03:05:10.987Z,0.00
2023-05-11T03:06:10.919Z,0.00
2023-05-11T03:07:10.902Z,0.00
2023-05-11T03:08:10.909Z,0.00
2023-05-11T03:09:10.872Z,0.00
2023-05-11T03:10:10.862Z,0.00
2023-05-11T03:11:10.885Z,0.00
2023-05-11T03:12:10.840Z,0.00
2023-05-11T03:13:10.842Z,0.00
2023-05-11T03:14:10.849Z,0.00
2023-05-11T03:15:10.814Z,0.00
2023-05-11T03:16:10.814Z,0.00
2023-05-11T03:17:10.789Z,0.00
2023-05-11T03:18:10.778Z,0.00
2023-05-11T03:19:10.777Z,0.00
2023-05-11T03:20:10.757Z,0.00
2023-05-11T03:21:10.763Z,0.00
2023-05-11T03:22:10.734Z,0.00
2023-05-11T03:23:10.732Z,0.00
2023-05-11T03:24:10.709Z,0.00
2023-05-11T03:25:10.755Z,0.00
2023-05-11T03:26:10.728Z,0.00
2023-05-11T03:27:10.693Z,0.00
2023-05-11T03:28:10.669Z,0.00
2023-05-11T03:29:10.669Z,0.00
2023-05-11T03:30:10.650Z,0.00
2023-05-11T03:31:10.657Z,0.00
2023-05-11T03:32:10.672Z,0.00
2023-05-11T03:33:10.702Z,0.00
2023-05-11T03:34:10.608Z,0.00
2023-05-11T03:35:10.631Z,0.00
2023-05-11T03:36:10.586Z,0.00
2023-05-11T03:37:10.598Z,0.00
2023-05-11T03:38:10.560Z,0.00
2023-05-11T03:39:10.577Z,0.00
2023-05-11T03:40:10.573Z,0.00
2023-05-11T03:41:10.543Z,0.00
2023-05-11T03:42:10.544Z,0.00
2023-05-11T03:43:10.519Z,0.00
2023-05-11T03:44:10.506Z,0.00
2023-05-11T03:45:10.491Z,0.00
2023-05-11T03:46:11.239Z,0.00
2023-05-11T03:47:10.516Z,0.00
2023-05-11T03:48:11.482Z,0.00
2023-05-11T03:49:12.854Z,0.00
2023-05-11T03:50:11.247Z,0.00
2023-05-11T03:51:10.467Z,0.00
2023-05-11T03:52:11.457Z,0.00
2023-05-11T03:53:10.937Z,0.00
2023-05-11T03:54:11.214Z,0.00
2023-05-11T03:55:10.427Z,0.00
2023-05-11T03:56:11.083Z,0.00
2023-05-11T03:57:10.439Z,0.00
2023-05-11T03:58:11.240Z,0.00
2023-05-11T03:59:10.498Z,0.00
2023-05-11T04:00:11.145Z,0.00
2023-05-11T04:01:10.442Z,0.00
2023-05-11T04:02:11.142Z,0.00
2023-05-11T04:03:10.703Z,0.00
2023-05-11T04:04:10.533Z,0.00
2023-05-11T04:05:10.402Z,0.00
2023-05-11T04:06:10.990Z,0.00
2023-05-11T04:07:10.295Z,0.00
2023-05-11T04:08:11.223Z,0.00
2023-05-11T04:09:10.336Z,0.00
2023-05-11T04:10:10.999Z,0.00
2023-05-11T04:11:10.316Z,5.62
2023-05-11T04:12:10.938Z,5.62
2023-05-11T04:13:10.289Z,5.62
2023-05-11T04:14:10.913Z,5.62
2023-05-11T04:15:10.229Z,5.62
2023-05-11T04:16:10.985Z,5.62
2023-05-11T04:17:10.279Z,5.62
2023-05-11T04:18:10.356Z,5.62
2023-05-11T04:19:10.159Z,5.62
2023-05-11T04:20:10.889Z,5.62
2023-05-11T04:21:10.136Z,5.62
2023-05-11T04:22:10.812Z,11.25
2023-05-11T04:23:10.620Z,11.25
2023-05-11T04:24:10.786Z,11.25
2023-05-11T04:25:10.122Z,11.25
2023-05-11T04:26:10.070Z,11.25
2023-05-11T04:27:10.119Z,11.25
2023-05-11T04:28:10.071Z,11.25
2023-05-11T04:29:10.065Z,11.25
2023-05-11T04:30:11.505Z,11.25
2023-05-11T04:31:10.069Z,11.25
2023-05-11T04:32:10.006Z,11.25
2023-05-11T04:33:09.984Z,16.88
2023-05-11T04:34:09.969Z,16.88
2023-05-11T04:35:09.978Z,16.88
2023-05-11T04:36:09.946Z,16.88
2023-05-11T04:37:09.934Z,16.88
2023-05-11T04:38:09.942Z,16.88
2023-05-11T04:39:09.922Z,16.88
2023-05-11T04:40:09.893Z,22.50
2023-05-11T04:41:09.909Z,22.50
2023-05-11T04:42:09.871Z,22.50
2023-05-11T04:43:09.862Z,22.50
2023-05-11T04:44:09.847Z,22.50
2023-05-11T04:45:09.843Z,22.50
2023-05-11T04:46:09.844Z,22.50
2023-05-11T04:47:09.944Z,22.50
2023-05-11T04:48:09.868Z,22.50
2023-05-11T04:49:09.801Z,28.12
2023-05-11T04:50:09.778Z,28.12
2023-05-11T04:51:09.798Z,28.12
2023-05-11T04:52:09.762Z,28.12
2023-05-11T04:53:09.766Z,28.12
2023-05-11T04:54:09.743Z,28.12
2023-05-11T04:55:09.742Z,33.75
2023-05-11T04:56:09.739Z,33.75
2023-05-11T04:57:09.709Z,33.75
2023-05-11T04:58:09.699Z,33.75
2023-05-11T04:59:09.706Z,33.75
2023-05-11T05:00:09.724Z,33.75
2023-05-11T05:01:09.739Z,33.75
2023-05-11T05:02:09.706Z,33.75
2023-05-11T05:03:09.699Z,33.75
2023-05-11T05:04:09.655Z,39.38
2023-05-11T05:05:09.624Z,39.38
2023-05-11T05:06:09.631Z,39.38
2023-05-11T05:07:09.602Z,39.38
2023-05-11T05:08:09.589Z,39.38
2023-05-11T05:09:09.584Z,39.38
2023-05-11T05:10:09.572Z,45.00
2023-05-11T05:11:09.568Z,45.00
2023-05-11T05:12:09.554Z,45.00
2023-05-11T05:13:09.571Z,45.00
2023-05-11T05:14:09.539Z,45.00
2023-05-11T05:15:09.518Z,50.62
2023-05-11T05:16:09.516Z,50.62
2023-05-11T05:17:09.559Z,50.62
2023-05-11T05:18:09.538Z,50.62
2023-05-11T05:19:09.497Z,56.25
2023-05-11T05:20:09.467Z,56.25
2023-05-11T05:21:09.467Z,56.25
2023-05-11T05:22:09.448Z,56.25
2023-05-11T05:23:09.434Z,56.25
2023-05-11T05:24:09.424Z,56.25
2023-05-11T05:25:09.424Z,56.25
2023-05-11T05:26:09.408Z,56.25
2023-05-11T05:27:09.399Z,56.25
2023-05-11T05:28:09.393Z,56.25
2023-05-11T05:29:09.387Z,61.88
2023-05-11T05:30:09.390Z,61.88
2023-05-11T05:31:09.400Z,61.88
2023-05-11T05:32:09.351Z,61.88
2023-05-11T05:33:09.353Z,61.88
2023-05-11T05:34:09.314Z,61.88
2023-05-11T05:35:09.326Z,67.50
2023-05-11T05:36:09.314Z,67.50
2023-05-11T05:37:09.294Z,67.50
2023-05-11T05:38:09.276Z,67.50
2023-05-11T05:39:09.265Z,67.50
2023-05-11T05:40:09.253Z,67.50
2023-05-11T05:41:09.243Z,67.50
2023-05-11T05:42:09.240Z,67.50
2023-05-11T05:43:09.230Z,67.50
2023-05-11T05:44:09.207Z,67.50
2023-05-11T05:45:09.217Z,73.12
2023-05-11T05:46:09.224Z,73.12
2023-05-11T05:47:09.167Z,73.12
2023-05-11T05:48:09.204Z,73.12
2023-05-11T05:49:09.157Z,78.75
2023-05-11T05:50:09.154Z,78.75
2023-05-11T05:51:09.147Z,78.75
2023-05-11T05:52:09.124Z,78.75
2023-05-11T05:53:09.127Z,84.38
2023-05-11T05:54:09.098Z,84.38
2023-05-11T05:55:09.098Z,84.38
2023-05-11T05:56:09.081Z,90.00
2023-05-11T05:57:09.069Z,90.00
2023-05-11T05:58:09.062Z,90.00
2023-05-11T05:59:09.048Z,95.62
2023-05-11T06:00:09.028Z,95.62
2023-05-11T06:01:09.016Z,95.62
2023-05-11T06:02:09.798Z,95.62
2023-05-11T06:03:09.137Z,101.25
2023-05-11T06:04:09.210Z,101.25
2023-05-11T06:05:08.996Z,101.25
2023-05-11T06:06:08.979Z,101.25
2023-05-11T06:07:08.963Z,101.25
2023-05-11T06:08:10.651Z,101.25
2023-05-11T06:09:08.944Z,101.25
2023-05-11T06:10:08.949Z,101.25
2023-05-11T06:11:08.902Z,101.25
2023-05-11T06:12:08.929Z,101.25
2023-05-11T06:13:08.890Z,106.88
2023-05-11T06:14:08.903Z,106.88
2023-05-11T06:15:08.883Z,106.88
2023-05-11T06:16:08.890Z,106.88
2023-05-11T06:17:08.851Z,112.50
2023-05-11T06:18:08.944Z,112.50
2023-05-11T06:19:09.002Z,112.50
2023-05-11T06:20:08.828Z,112.50
2023-05-11T06:21:08.809Z,112.50
2023-05-11T06:22:08.794Z,118.12
2023-05-11T06:23:08.774Z,118.12
2023-05-11T06:24:08.778Z,118.12
2023-05-11T06:25:08.757Z,118.12
2023-05-11T06:26:08.743Z,118.12
2023-05-11T06:27:08.750Z,118.12
2023-05-11T06:28:08.728Z,118.12
2023-05-11T06:29:08.739Z,118.12
2023-05-11T06:30:08.708Z,118.12
2023-05-11T06:31:08.689Z,112.50
2023-05-11T06:32:08.698Z,112.50
2023-05-11T06:33:08.713Z,112.50
2023-05-11T06:34:08.673Z,112.50
2023-05-11T06:35:08.645Z,112.50
2023-05-11T06:36:08.641Z,112.50
2023-05-11T06:37:08.640Z,112.50
2023-05-11T06:38:08.623Z,106.88
2023-05-11T06:39:08.610Z,106.88
2023-05-11T06:40:08.599Z,106.88
2023-05-11T06:41:08.579Z,112.50
2023-05-11T06:42:08.591Z,112.50
2023-05-11T06:43:08.556Z,112.50
2023-05-11T06:44:08.555Z,118.12
2023-05-11T06:45:08.583Z,118.12
2023-05-11T06:46:08.555Z,118.12
2023-05-11T06:47:08.515Z,123.75
2023-05-11T06:48:08.544Z,123.75
2023-05-11T06:49:08.514Z,123.75
2023-05-11T06:50:08.485Z,123.75
2023-05-11T06:51:08.470Z,118.12
2023-05-11T06:52:08.463Z,123.75
2023-05-11T06:53:08.466Z,123.75
2023-05-11T06:54:08.447Z,123.75
2023-05-11T06:55:08.427Z,129.38
2023-05-11T06:56:08.441Z,129.38
2023-05-11T06:57:08.421Z,129.38
2023-05-11T06:58:08.398Z,129.38
2023-05-11T06:59:08.388Z,129.38
2023-05-11T07:00:08.389Z,129.38
2023-05-11T07:01:08.414Z,129.38
2023-05-11T07:02:08.363Z,129.38
2023-05-11T07:03:08.374Z,129.38
2023-05-11T07:04:08.357Z,129.38
2023-05-11T07:05:08.452Z,129.38
2023-05-11T07:06:08.327Z,129.38
2023-05-11T07:07:08.298Z,129.38
2023-05-11T07:08:08.309Z,129.38
2023-05-11T07:09:08.272Z,129.38
2023-05-11T07:10:08.265Z,129.38
2023-05-11T07:11:08.252Z,129.38
2023-05-11T07:12:08.247Z,135.00
2023-05-11T07:13:08.232Z,135.00
2023-05-11T07:14:08.238Z,135.00
2023-05-11T07:15:08.205Z,135.00
2023-05-11T07:16:08.202Z,135.00
2023-05-11T07:17:08.285Z,135.00
2023-05-11T07:18:08.214Z,129.38
2023-05-11T07:19:08.291Z,118.12
2023-05-11T07:20:08.158Z,118.12
2023-05-11T07:21:08.150Z,118.12
2023-05-11T07:22:08.158Z,129.38
2023-05-11T07:23:08.130Z,129.38
2023-05-11T07:24:08.119Z,123.75
2023-05-11T07:25:08.097Z,118.12
2023-05-11T07:26:08.098Z,112.50
2023-05-11T07:27:08.074Z,112.50
2023-05-11T07:28:08.078Z,123.75
2023-05-11T07:29:08.056Z,135.00
2023-05-11T07:30:08.060Z,146.25
2023-05-11T07:31:08.127Z,140.62
2023-05-11T07:32:08.043Z,140.62
2023-05-11T07:33:08.063Z,135.00
2023-05-11T07:34:07.996Z,123.75
2023-05-11T07:35:08.001Z,129.38
2023-05-11T07:36:07.998Z,151.88
2023-05-11T07:37:07.976Z,163.12
2023-05-11T07:38:08.038Z,163.12
2023-05-11T07:39:07.951Z,168.75
2023-05-11T07:40:07.941Z,163.12
2023-05-11T07:41:09.494Z,157.50
2023-05-11T07:42:07.937Z,140.62
2023-05-11T07:43:07.920Z,129.38
2023-05-11T07:44:07.894Z,129.38
2023-05-11T07:45:07.880Z,140.62
2023-05-11T07:46:07.906Z,151.88
2023-05-11T07:47:07.867Z,146.25
2023-05-11T07:48:07.954Z,151.88
2023-05-11T07:50:08.842Z,185.62
2023-05-11T07:51:07.822Z,185.62
2023-05-11T07:52:07.812Z,185.62
2023-05-11T07:53:07.793Z,185.62
2023-05-11T07:54:07.789Z,185.62
2023-05-11T07:55:07.767Z,185.62
2023-05-11T07:56:07.784Z,174.38
2023-05-11T07:57:07.757Z,174.38
2023-05-11T07:58:07.752Z,180.00
2023-05-11T07:59:07.746Z,180.00
2023-05-11T08:00:08.207Z,180.00
2023-05-11T08:01:07.726Z,185.62
2023-05-11T08:02:07.724Z,185.62
2023-05-11T08:03:07.730Z,191.25
2023-05-11T08:04:07.695Z,185.62
2023-05-11T08:05:07.671Z,191.25
2023-05-11T08:06:07.702Z,191.25
2023-05-11T08:07:07.656Z,196.88
2023-05-11T08:08:07.641Z,208.12
2023-05-11T08:09:07.620Z,208.12
2023-05-11T08:10:07.618Z,208.12
2023-05-11T08:11:07.620Z,208.12
2023-05-11T08:12:07.594Z,202.50
2023-05-11T08:13:07.579Z,208.12
2023-05-11T08:14:07.582Z,213.75
2023-05-11T08:15:07.566Z,219.38
2023-05-11T08:16:07.587Z,225.00
2023-05-11T08:17:07.534Z,225.00
2023-05-11T08:18:07.638Z,230.62
2023-05-11T08:19:07.540Z,230.62
2023-05-11T08:20:07.534Z,230.62
2023-05-11T08:21:07.492Z,236.25
2023-05-11T08:22:07.490Z,236.25
2023-05-11T08:23:07.467Z,241.88
2023-05-11T08:24:07.626Z,241.88
2023-05-11T08:25:07.490Z,241.88
2023-05-11T08:26:07.446Z,241.88
2023-05-11T08:27:07.420Z,241.88
2023-05-11T08:28:07.440Z,241.88
2023-05-11T08:29:07.407Z,236.25
2023-05-11T08:30:08.500Z,236.25
2023-05-11T08:31:07.380Z,230.62
2023-05-11T08:32:07.440Z,230.62
2023-05-11T08:33:20.128Z,230.62
2023-05-11T08:34:17.847Z,230.62
2023-05-11T08:35:08.539Z,236.25
2023-05-11T08:36:07.352Z,236.25
2023-05-11T08:37:07.317Z,236.25
2023-05-11T08:38:07.313Z,236.25
2023-05-11T08:39:07.286Z,241.88
2023-05-11T08:40:07.286Z,241.88
2023-05-11T08:41:07.292Z,241.88
2023-05-11T08:42:07.353Z,247.50
2023-05-11T08:43:07.257Z,247.50
2023-05-11T08:44:07.272Z,247.50
2023-05-11T08:45:07.229Z,253.12
2023-05-11T08:46:07.312Z,253.12
2023-05-11T08:47:22.032Z,253.12
2023-05-11T08:48:08.286Z,253.12
2023-05-11T08:49:07.184Z,253.12
2023-05-11T08:50:07.191Z,247.50
2023-05-11T08:51:07.171Z,241.88
2023-05-11T08:52:07.943Z,236.25
2023-05-11T08:53:07.162Z,241.88
2023-05-11T08:54:07.139Z,241.88
2023-05-11T08:55:07.124Z,236.25
2023-05-11T08:56:07.113Z,236.25
2023-05-11T08:57:07.141Z,230.62
2023-05-11T08:58:07.100Z,230.62
2023-05-11T08:59:07.126Z,230.62
2023-05-11T09:00:07.075Z,236.25
2023-05-11T09:01:07.127Z,236.25
2023-05-11T09:02:07.048Z,241.88
2023-05-11T09:03:07.086Z,247.50
2023-05-11T09:04:07.024Z,253.12
2023-05-11T09:05:07.053Z,253.12
2023-05-11T09:06:07.025Z,253.12
2023-05-11T09:07:06.985Z,247.50
2023-05-11T09:08:06.991Z,236.25
2023-05-11T09:09:06.973Z,219.38
2023-05-11T09:10:06.957Z,196.88
2023-05-11T09:11:06.965Z,213.75
2023-05-11T09:12:06.932Z,236.25
2023-05-11T09:13:06.934Z,230.62
2023-05-11T09:14:06.928Z,219.38
2023-05-11T09:15:06.919Z,219.38
2023-05-11T09:16:13.874Z,225.00
2023-05-11T09:17:08.038Z,230.62
2023-05-11T09:18:06.988Z,213.75
2023-05-11T09:19:06.968Z,185.62
2023-05-11T09:20:06.855Z,168.75
2023-05-11T09:21:06.858Z,185.62
2023-05-11T09:22:06.837Z,208.12
2023-05-11T09:23:06.835Z,230.62
2023-05-11T09:24:06.811Z,241.88
2023-05-11T09:25:06.806Z,236.25
2023-05-11T09:26:06.796Z,213.75
2023-05-11T09:27:06.781Z,219.38
2023-05-11T09:28:06.782Z,236.25
2023-05-11T09:29:06.759Z,241.88
2023-05-11T09:30:06.762Z,236.25
2023-05-11T09:31:06.818Z,258.75
2023-05-11T09:32:06.730Z,264.38
2023-05-11T09:33:06.760Z,270.00
2023-05-11T09:34:06.707Z,275.62
2023-05-11T09:35:06.696Z,281.25
2023-05-11T09:36:06.695Z,281.25
2023-05-11T09:37:06.671Z,281.25
2023-05-11T09:38:06.688Z,275.62
2023-05-11T09:39:06.650Z,275.62
2023-05-11T09:40:26.307Z,275.62
2023-05-11T09:41:07.653Z,275.62
2023-05-11T09:42:06.611Z,275.62
2023-05-11T09:43:06.601Z,281.25
2023-05-11T09:44:06.595Z,286.88
2023-05-11T09:45:06.614Z,286.88
2023-05-11T09:46:06.620Z,292.50
2023-05-11T09:47:06.569Z,292.50
2023-05-11T09:48:06.651Z,298.12
2023-05-11T09:49:06.535Z,298.12
2023-05-11T09:50:06.565Z,298.12
2023-05-11T09:51:06.567Z,298.12
2023-05-11T09:52:06.529Z,298.12
2023-05-11T09:53:06.497Z,303.75
2023-05-11T09:54:06.480Z,303.75
2023-05-11T09:55:06.476Z,303.75
2023-05-11T09:56:06.471Z,286.88
2023-05-11T09:57:06.450Z,292.50
2023-05-11T09:58:06.461Z,315.00
2023-05-11T09:59:06.437Z,320.62
2023-05-11T10:00:06.415Z,326.25
2023-05-11T10:01:06.480Z,331.88
2023-05-11T10:02:06.396Z,326.25
2023-05-11T10:03:06.461Z,298.12
2023-05-11T10:04:21.956Z,326.25
2023-05-11T10:05:07.364Z,331.88
2023-05-11T10:06:06.349Z,326.25
2023-05-11T10:07:06.358Z,331.88
2023-05-11T10:08:06.338Z,326.25
2023-05-11T10:09:06.325Z,303.75
2023-05-11T10:10:06.328Z,270.00
2023-05-11T10:11:06.310Z,298.12
2023-05-11T10:12:06.305Z,298.12
2023-05-11T10:13:06.277Z,281.25
2023-05-11T10:14:06.272Z,298.12
2023-05-11T10:15:06.271Z,320.62
2023-05-11T10:16:06.318Z,320.62
2023-05-11T10:17:06.247Z,309.38
2023-05-11T10:18:06.292Z,298.12
2023-05-11T10:19:06.242Z,286.88
2023-05-11T10:20:06.262Z,247.50
2023-05-11T10:21:06.204Z,253.12
2023-05-11T10:22:06.187Z,286.88
2023-05-11T10:23:06.168Z,264.38
2023-05-11T10:24:06.173Z,281.25
2023-05-11T10:25:06.157Z,286.88
2023-05-11T10:26:06.132Z,298.12
2023-05-11T10:27:06.145Z,298.12
2023-05-11T10:28:06.101Z,298.12
2023-05-11T10:29:06.102Z,292.50
2023-05-11T10:30:06.096Z,275.62
2023-05-11T10:31:06.080Z,286.88
2023-05-11T10:32:06.102Z,292.50
2023-05-11T10:33:06.148Z,292.50
2023-05-11T10:34:06.043Z,281.25
2023-05-11T10:35:06.057Z,286.88
2023-05-11T10:36:06.017Z,292.50
2023-05-11T10:37:06.020Z,292.50
2023-05-11T10:38:06.018Z,298.12
2023-05-11T10:39:06.069Z,303.75
2023-05-11T10:40:05.987Z,309.38
2023-05-11T10:41:05.964Z,315.00
2023-05-11T10:42:05.973Z,320.62
2023-05-11T10:43:05.948Z,320.62
2023-05-11T10:44:05.934Z,315.00
2023-05-11T10:45:05.962Z,320.62
2023-05-11T10:46:05.979Z,315.00
2023-05-11T10:47:05.920Z,309.38
2023-05-11T10:48:05.944Z,309.38
2023-05-11T10:49:05.882Z,315.00
2023-05-11T10:50:05.864Z,320.62
2023-05-11T10:51:05.867Z,326.25
2023-05-11T10:52:05.844Z,331.88
2023-05-11T10:53:05.850Z,337.50
2023-05-11T10:54:05.815Z,343.12
2023-05-11T10:55:05.822Z,337.50
2023-05-11T10:56:05.804Z,343.12
2023-05-11T10:57:05.796Z,348.75
2023-05-11T10:58:05.806Z,354.38
2023-05-11T10:59:05.804Z,354.38
2023-05-11T11:00:05.794Z,360.00
2023-05-11T11:01:05.856Z,360.00
2023-05-11T11:02:05.734Z,354.38
2023-05-11T11:03:05.759Z,360.00
2023-05-11T11:04:05.749Z,360.00
2023-05-11T11:05:05.854Z,365.62
2023-05-11T11:06:05.764Z,365.62
2023-05-11T11:07:05.718Z,360.00
2023-05-11T11:08:05.723Z,365.62
2023-05-11T11:09:05.668Z,371.25
2023-05-11T11:10:05.660Z,371.25
2023-05-11T11:11:06.630Z,376.88
2023-05-11T11:12:05.628Z,376.88
2023-05-11T11:13:05.656Z,376.88
2023-05-11T11:14:05.857Z,382.50
2023-05-11T11:15:05.634Z,382.50
2023-05-11T11:16:05.588Z,382.50
2023-05-11T11:17:05.645Z,382.50
2023-05-11T11:18:05.629Z,376.88
2023-05-11T11:19:05.633Z,371.25
2023-05-11T11:20:05.560Z,365.62
2023-05-11T11:21:05.543Z,371.25
2023-05-11T11:22:05.531Z,371.25
2023-05-11T11:23:05.584Z,393.75
2023-05-11T11:24:05.504Z,393.75
2023-05-11T11:25:05.507Z,416.25
2023-05-11T11:26:05.482Z,421.88
2023-05-11T11:27:05.478Z,416.25
2023-05-11T11:28:05.497Z,405.00
2023-05-11T11:29:05.457Z,371.25
2023-05-11T11:30:05.446Z,348.75
2023-05-11T11:31:05.472Z,365.62
2023-05-11T11:32:05.421Z,393.75
2023-05-11T11:33:05.449Z,405.00
2023-05-11T11:34:05.393Z,376.88
2023-05-11T11:35:05.393Z,337.50
2023-05-11T11:36:05.371Z,303.75
2023-05-11T11:37:05.387Z,309.38
2023-05-11T11:38:05.542Z,331.88
2023-05-11T11:39:05.361Z,365.62
2023-05-11T11:40:13.906Z,376.88
2023-05-11T11:41:06.341Z,405.00
2023-05-11T11:42:05.313Z,416.25
2023-05-11T11:43:05.306Z,405.00
2023-05-11T11:44:05.298Z,405.00
2023-05-11T11:45:05.286Z,405.00
2023-05-11T11:46:05.311Z,405.00
2023-05-11T11:47:05.263Z,416.25
2023-05-11T11:48:05.270Z,438.75
2023-05-11T11:49:05.234Z,461.25
2023-05-11T11:50:05.232Z,466.88
2023-05-11T11:51:05.251Z,461.25
2023-05-11T11:52:05.213Z,450.00
2023-05-11T11:53:05.198Z,444.38
2023-05-11T11:54:05.183Z,455.62
2023-05-11T11:55:05.336Z,472.50
2023-05-11T11:56:05.184Z,483.75
2023-05-11T11:57:05.154Z,483.75
2023-05-11T11:58:05.145Z,483.75
2023-05-11T11:59:05.171Z,478.12
2023-05-11T12:00:05.115Z,489.38
2023-05-11T12:01:05.112Z,500.62
2023-05-11T12:02:05.093Z,517.50
2023-05-11T12:03:05.109Z,528.75
2023-05-11T12:04:05.432Z,511.88
2023-05-11T12:05:05.172Z,472.50
2023-05-11T12:06:05.076Z,399.38
2023-05-11T12:07:05.045Z,354.38
2023-05-11T12:08:05.028Z,360.00
2023-05-11T12:09:05.042Z,399.38
2023-05-11T12:10:05.054Z,433.12
2023-05-11T12:11:05.007Z,450.00
2023-05-11T12:12:04.991Z,455.62
2023-05-11T12:13:04.981Z,478.12
2023-05-11T12:14:04.977Z,495.00
2023-05-11T12:15:04.975Z,495.00
2023-05-11T12:16:04.982Z,466.88
2023-05-11T12:17:04.938Z,427.50
2023-05-11T12:18:04.977Z,393.75
2023-05-11T12:19:04.926Z,393.75
2023-05-11T12:20:04.914Z,427.50
2023-05-11T12:21:04.893Z,438.75
2023-05-11T12:22:04.929Z,444.38
2023-05-11T12:23:04.882Z,478.12
2023-05-11T12:24:04.912Z,506.25
2023-05-11T12:25:04.861Z,534.38
2023-05-11T12:26:04.839Z,556.88
2023-05-11T12:27:04.828Z,556.88
2023-05-11T12:28:04.805Z,573.75
2023-05-11T12:29:04.828Z,573.75
2023-05-11T12:30:04.811Z,562.50
2023-05-11T12:31:04.797Z,517.50
2023-05-11T12:32:04.822Z,478.12
2023-05-11T12:33:04.841Z,450.00
2023-05-11T12:34:04.750Z,433.12
2023-05-11T12:35:04.756Z,438.75
2023-05-11T12:36:04.737Z,472.50
2023-05-11T12:37:04.722Z,483.75
2023-05-11T12:38:04.722Z,478.12
2023-05-11T12:39:04.691Z,472.50
2023-05-11T12:40:04.691Z,466.88
2023-05-11T12:41:04.693Z,405.00
2023-05-11T12:42:04.661Z,405.00
2023-05-11T12:43:04.662Z,461.25
2023-05-11T12:44:04.642Z,523.12
2023-05-11T12:45:04.644Z,568.12
2023-05-11T12:46:04.643Z,585.00
2023-05-11T12:47:04.612Z,607.50
2023-05-11T12:48:04.661Z,658.12
2023-05-11T12:49:04.605Z,686.25